Terminal Aerodrome Forecast
Issued by NWS

Home | Current Version | Previous Version | Text Only | Print | Product List | Glossary On
Versions: 1 2 3 4 5 6 7 8 9 10 11 12 13 14 15 16
937
FTUS43 KGRR 311140
TAFJXN
TAF
KJXN 311140Z 3112/0112 34003KT 5SM BR OVC004
     FM311400 36005KT 5SM BR SCT007 OVC015
     FM311600 36006KT P6SM VCSH OVC025
     FM311700 35008KT P6SM VCSH BKN040
     FM312300 01003KT P6SM SCT040=

USA.gov is the U.S. government's official web portal to all federal, state and local government web resources and services.